sensor_id;sensor_type;location;lat;lon;timestamp;P1;durP1;ratioP1;P2;durP2;ratioP2
209;SDS011;90;48.810;9.120;2023-03-14T00:00:58;1.80;;;1.10;;
209;SDS011;90;48.810;9.120;2023-03-14T00:03:25;1.90;;;1.30;;
209;SDS011;90;48.810;9.120;2023-03-14T00:05:54;2.00;;;1.27;;
209;SDS011;90;48.810;9.120;2023-03-14T00:08:21;2.23;;;1.30;;
209;SDS011;90;48.810;9.120;2023-03-14T00:10:49;1.90;;;1.10;;
209;SDS011;90;48.810;9.120;2023-03-14T00:13:16;2.57;;;1.20;;
209;SDS011;90;48.810;9.120;2023-03-14T00:15:43;1.80;;;1.30;;
209;SDS011;90;48.810;9.120;2023-03-14T00:18:12;3.10;;;1.40;;
209;SDS011;90;48.810;9.120;2023-03-14T00:20:38;1.77;;;1.27;;
209;SDS011;90;48.810;9.120;2023-03-14T00:23:05;1.80;;;1.40;;
209;SDS011;90;48.810;9.120;2023-03-14T00:25:32;2.47;;;1.30;;
209;SDS011;90;48.810;9.120;2023-03-14T00:27:58;1.80;;;1.43;;
209;SDS011;90;48.810;9.120;2023-03-14T00:30:25;1.77;;;1.20;;
209;SDS011;90;48.810;9.120;2023-03-14T00:32:52;1.77;;;1.17;;
209;SDS011;90;48.810;9.120;2023-03-14T00:35:20;1.77;;;1.30;;
209;SDS011;90;48.810;9.120;2023-03-14T00:37:47;3.03;;;1.47;;
209;SDS011;90;48.810;9.120;2023-03-14T00:40:14;2.10;;;1.50;;
209;SDS011;90;48.810;9.120;2023-03-14T00:42:41;1.90;;;1.30;;
209;SDS011;90;48.810;9.120;2023-03-14T00:45:08;3.17;;;1.40;;
209;SDS011;90;48.810;9.120;2023-03-14T00:47:35;1.80;;;1.40;;
209;SDS011;90;48.810;9.120;2023-03-14T00:50:02;2.37;;;1.50;;
209;SDS011;90;48.810;9.120;2023-03-14T00:52:31;1.80;;;1.20;;
209;SDS011;90;48.810;9.120;2023-03-14T00:54:57;2.67;;;1.50;;
209;SDS011;90;48.810;9.120;2023-03-14T00:57:24;1.80;;;1.30;;
209;SDS011;90;48.810;9.120;2023-03-14T00:59:51;2.30;;;1.70;;
209;SDS011;90;48.810;9.120;2023-03-14T01:02:18;1.70;;;1.20;;
209;SDS011;90;48.810;9.120;2023-03-14T01:04:47;2.83;;;1.20;;
209;SDS011;90;48.810;9.120;2023-03-14T01:07:14;1.70;;;1.10;;
209;SDS011;90;48.810;9.120;2023-03-14T01:09:42;1.70;;;1.13;;
209;SDS011;90;48.810;9.120;2023-03-14T01:12:09;4.03;;;1.47;;
209;SDS011;90;48.810;9.120;2023-03-14T01:14:36;1.80;;;1.20;;
209;SDS011;90;48.810;9.120;2023-03-14T01:17:03;2.00;;;1.20;;
209;SDS011;90;48.810;9.120;2023-03-14T01:19:29;2.57;;;1.23;;
209;SDS011;90;48.810;9.120;2023-03-14T01:21:56;1.87;;;1.27;;
209;SDS011;90;48.810;9.120;2023-03-14T01:24:23;1.80;;;1.30;;
209;SDS011;90;48.810;9.120;2023-03-14T01:26:51;2.30;;;1.30;;
209;SDS011;90;48.810;9.120;2023-03-14T01:29:18;1.93;;;1.50;;
209;SDS011;90;48.810;9.120;2023-03-14T01:31:44;1.90;;;1.40;;
209;SDS011;90;48.810;9.120;2023-03-14T01:34:12;1.70;;;1.27;;
209;SDS011;90;48.810;9.120;2023-03-14T01:36:39;1.80;;;1.27;;
209;SDS011;90;48.810;9.120;2023-03-14T01:39:06;3.10;;;1.40;;
209;SDS011;90;48.810;9.120;2023-03-14T01:41:34;1.80;;;1.33;;
209;SDS011;90;48.810;9.120;2023-03-14T01:44:05;2.40;;;1.40;;
209;SDS011;90;48.810;9.120;2023-03-14T01:46:34;2.00;;;1.30;;
209;SDS011;90;48.810;9.120;2023-03-14T01:49:05;3.13;;;1.40;;
209;SDS011;90;48.810;9.120;2023-03-14T01:51:46;1.90;;;1.40;;
209;SDS011;90;48.810;9.120;2023-03-14T01:54:18;4.53;;;1.30;;
209;SDS011;90;48.810;9.120;2023-03-14T01:56:50;3.20;;;1.40;;
209;SDS011;90;48.810;9.120;2023-03-14T01:59:20;1.80;;;1.30;;
209;SDS011;90;48.810;9.120;2023-03-14T02:01:47;1.70;;;1.07;;
209;SDS011;90;48.810;9.120;2023-03-14T02:04:17;1.97;;;1.50;;
209;SDS011;90;48.810;9.120;2023-03-14T02:06:49;1.80;;;1.30;;
209;SDS011;90;48.810;9.120;2023-03-14T02:09:20;2.60;;;1.37;;
209;SDS011;90;48.810;9.120;2023-03-14T02:11:48;1.80;;;1.30;;
209;SDS011;90;48.810;9.120;2023-03-14T02:14:19;1.77;;;1.40;;
209;SDS011;90;48.810;9.120;2023-03-14T02:16:58;2.00;;;1.13;;
209;SDS011;90;48.810;9.120;2023-03-14T02:19:39;1.80;;;1.40;;
209;SDS011;90;48.810;9.120;2023-03-14T02:22:16;1.73;;;1.30;;
209;SDS011;90;48.810;9.120;2023-03-14T02:24:45;3.07;;;2.07;;
209;SDS011;90;48.810;9.120;2023-03-14T02:27:18;2.73;;;1.60;;
209;SDS011;90;48.810;9.120;2023-03-14T02:29:48;1.80;;;1.43;;
209;SDS011;90;48.810;9.120;2023-03-14T02:32:18;1.90;;;1.30;;
209;SDS011;90;48.810;9.120;2023-03-14T02:34:48;1.80;;;1.20;;
209;SDS011;90;48.810;9.120;2023-03-14T02:37:18;1.80;;;1.30;;
209;SDS011;90;48.810;9.120;2023-03-14T02:39:48;1.80;;;1.30;;
209;SDS011;90;48.810;9.120;2023-03-14T02:42:15;1.90;;;1.20;;
209;SDS011;90;48.810;9.120;2023-03-14T02:44:48;2.07;;;1.20;;
209;SDS011;90;48.810;9.120;2023-03-14T02:47:18;1.80;;;1.40;;
209;SDS011;90;48.810;9.120;2023-03-14T02:49:48;2.03;;;1.20;;
209;SDS011;90;48.810;9.120;2023-03-14T02:52:15;1.80;;;1.40;;
209;SDS011;90;48.810;9.120;2023-03-14T02:54:42;1.80;;;1.70;;
209;SDS011;90;48.810;9.120;2023-03-14T02:57:09;3.93;;;1.57;;
209;SDS011;90;48.810;9.120;2023-03-14T02:59:36;1.77;;;1.30;;
209;SDS011;90;48.810;9.120;2023-03-14T03:02:04;1.97;;;1.40;;
209;SDS011;90;48.810;9.120;2023-03-14T03:04:30;2.00;;;1.27;;
209;SDS011;90;48.810;9.120;2023-03-14T03:06:57;3.20;;;1.43;;
209;SDS011;90;48.810;9.120;2023-03-14T03:09:24;1.87;;;1.43;;
209;SDS011;90;48.810;9.120;2023-03-14T03:11:50;5.23;;;1.57;;
209;SDS011;90;48.810;9.120;2023-03-14T03:14:17;3.27;;;1.40;;
209;SDS011;90;48.810;9.120;2023-03-14T03:16:44;2.63;;;1.40;;
209;SDS011;90;48.810;9.120;2023-03-14T03:19:12;3.53;;;1.43;;
209;SDS011;90;48.810;9.120;2023-03-14T03:21:40;2.00;;;1.30;;
209;SDS011;90;48.810;9.120;2023-03-14T03:27:20;3.33;;;1.57;;
209;SDS011;90;48.810;9.120;2023-03-14T03:29:47;2.70;;;1.60;;
209;SDS011;90;48.810;9.120;2023-03-14T03:32:13;2.07;;;1.77;;
209;SDS011;90;48.810;9.120;2023-03-14T03:34:41;4.57;;;1.63;;
209;SDS011;90;48.810;9.120;2023-03-14T03:37:08;2.30;;;1.60;;
209;SDS011;90;48.810;9.120;2023-03-14T03:39:35;3.73;;;1.63;;
209;SDS011;90;48.810;9.120;2023-03-14T03:42:02;3.20;;;1.60;;
209;SDS011;90;48.810;9.120;2023-03-14T03:44:28;3.50;;;1.63;;
209;SDS011;90;48.810;9.120;2023-03-14T03:46:55;2.73;;;1.50;;
209;SDS011;90;48.810;9.120;2023-03-14T03:49:22;1.90;;;1.60;;
209;SDS011;90;48.810;9.120;2023-03-14T03:51:50;4.30;;;1.50;;
209;SDS011;90;48.810;9.120;2023-03-14T03:54:17;2.30;;;1.50;;
209;SDS011;90;48.810;9.120;2023-03-14T03:56:43;5.00;;;1.47;;
209;SDS011;90;48.810;9.120;2023-03-14T03:59:10;3.33;;;1.47;;
209;SDS011;90;48.810;9.120;2023-03-14T04:01:37;1.90;;;1.60;;
209;SDS011;90;48.810;9.120;2023-03-14T04:04:04;2.90;;;1.40;;
209;SDS011;90;48.810;9.120;2023-03-14T04:06:30;2.67;;;1.60;;
209;SDS011;90;48.810;9.120;2023-03-14T04:08:59;4.67;;;1.77;;
209;SDS011;90;48.810;9.120;2023-03-14T04:11:28;5.47;;;1.63;;
209;SDS011;90;48.810;9.120;2023-03-14T04:13:55;2.33;;;1.40;;
209;SDS011;90;48.810;9.120;2023-03-14T04:16:22;2.00;;;1.60;;
209;SDS011;90;48.810;9.120;2023-03-14T04:18:51;4.43;;;1.80;;
209;SDS011;90;48.810;9.120;2023-03-14T04:21:18;2.50;;;1.50;;
209;SDS011;90;48.810;9.120;2023-03-14T04:23:45;3.67;;;1.60;;
209;SDS011;90;48.810;9.120;2023-03-14T04:26:13;2.70;;;1.50;;
209;SDS011;90;48.810;9.120;2023-03-14T04:28:40;2.23;;;1.40;;
209;SDS011;90;48.810;9.120;2023-03-14T04:31:07;3.70;;;2.00;;
209;SDS011;90;48.810;9.120;2023-03-14T04:33:34;2.87;;;1.50;;
209;SDS011;90;48.810;9.120;2023-03-14T04:36:02;4.50;;;1.90;;
209;SDS011;90;48.810;9.120;2023-03-14T04:38:30;3.30;;;1.50;;
209;SDS011;90;48.810;9.120;2023-03-14T04:40:57;3.30;;;1.80;;
209;SDS011;90;48.810;9.120;2023-03-14T04:43:25;2.83;;;1.47;;
209;SDS011;90;48.810;9.120;2023-03-14T04:45:53;3.80;;;1.50;;
209;SDS011;90;48.810;9.120;2023-03-14T04:48:20;4.80;;;1.87;;
209;SDS011;90;48.810;9.120;2023-03-14T04:50:47;3.17;;;1.90;;
209;SDS011;90;48.810;9.120;2023-03-14T04:53:14;3.70;;;1.67;;
209;SDS011;90;48.810;9.120;2023-03-14T04:55:42;3.07;;;1.60;;
209;SDS011;90;48.810;9.120;2023-03-14T04:58:13;2.97;;;1.80;;
209;SDS011;90;48.810;9.120;2023-03-14T05:00:41;4.37;;;1.73;;
209;SDS011;90;48.810;9.120;2023-03-14T05:03:08;7.03;;;1.70;;
209;SDS011;90;48.810;9.120;2023-03-14T05:05:36;2.57;;;1.93;;
209;SDS011;90;48.810;9.120;2023-03-14T05:08:02;6.00;;;1.73;;
209;SDS011;90;48.810;9.120;2023-03-14T05:10:29;3.20;;;1.80;;
209;SDS011;90;48.810;9.120;2023-03-14T05:12:56;2.73;;;1.53;;
209;SDS011;90;48.810;9.120;2023-03-14T05:15:23;3.30;;;1.97;;
209;SDS011;90;48.810;9.120;2023-03-14T05:17:51;5.50;;;2.00;;
209;SDS011;90;48.810;9.120;2023-03-14T05:20:19;2.47;;;1.67;;
209;SDS011;90;48.810;9.120;2023-03-14T05:22:46;2.20;;;1.57;;
209;SDS011;90;48.810;9.120;2023-03-14T05:25:13;3.70;;;1.87;;
209;SDS011;90;48.810;9.120;2023-03-14T05:27:40;3.77;;;1.60;;
209;SDS011;90;48.810;9.120;2023-03-14T05:30:08;2.30;;;1.93;;
209;SDS011;90;48.810;9.120;2023-03-14T05:32:37;3.53;;;1.50;;
209;SDS011;90;48.810;9.120;2023-03-14T05:35:05;3.03;;;1.60;;
209;SDS011;90;48.810;9.120;2023-03-14T05:37:33;3.23;;;1.70;;
209;SDS011;90;48.810;9.120;2023-03-14T05:40:00;2.27;;;1.90;;
209;SDS011;90;48.810;9.120;2023-03-14T05:42:28;3.00;;;1.57;;
209;SDS011;90;48.810;9.120;2023-03-14T05:44:54;4.20;;;1.70;;
209;SDS011;90;48.810;9.120;2023-03-14T05:47:21;3.83;;;1.83;;
209;SDS011;90;48.810;9.120;2023-03-14T05:49:48;3.70;;;1.60;;
209;SDS011;90;48.810;9.120;2023-03-14T05:52:16;2.30;;;1.87;;
209;SDS011;90;48.810;9.120;2023-03-14T05:54:43;2.10;;;1.40;;
209;SDS011;90;48.810;9.120;2023-03-14T05:57:10;3.03;;;1.67;;
209;SDS011;90;48.810;9.120;2023-03-14T05:59:37;3.93;;;1.60;;
209;SDS011;90;48.810;9.120;2023-03-14T06:02:03;3.93;;;1.60;;
209;SDS011;90;48.810;9.120;2023-03-14T06:04:30;2.13;;;1.40;;
209;SDS011;90;48.810;9.120;2023-03-14T06:06:57;3.80;;;1.40;;
209;SDS011;90;48.810;9.120;2023-03-14T06:09:25;3.03;;;1.47;;
209;SDS011;90;48.810;9.120;2023-03-14T06:11:52;6.00;;;2.10;;
209;SDS011;90;48.810;9.120;2023-03-14T06:14:19;7.27;;;1.87;;
209;SDS011;90;48.810;9.120;2023-03-14T06:16:46;3.10;;;1.53;;
209;SDS011;90;48.810;9.120;2023-03-14T06:19:14;4.33;;;1.40;;
209;SDS011;90;48.810;9.120;2023-03-14T06:21:41;4.43;;;1.63;;
209;SDS011;90;48.810;9.120;2023-03-14T06:24:07;3.50;;;1.70;;
209;SDS011;90;48.810;9.120;2023-03-14T06:26:35;4.33;;;1.50;;
209;SDS011;90;48.810;9.120;2023-03-14T06:29:02;4.70;;;1.80;;
209;SDS011;90;48.810;9.120;2023-03-14T06:31:30;3.93;;;1.43;;
209;SDS011;90;48.810;9.120;2023-03-14T06:33:57;6.20;;;1.80;;
209;SDS011;90;48.810;9.120;2023-03-14T06:36:23;3.50;;;1.50;;
209;SDS011;90;48.810;9.120;2023-03-14T06:38:50;3.40;;;1.43;;
209;SDS011;90;48.810;9.120;2023-03-14T06:41:17;2.73;;;1.67;;
209;SDS011;90;48.810;9.120;2023-03-14T06:43:46;2.40;;;1.20;;
209;SDS011;90;48.810;9.120;2023-03-14T06:46:12;4.70;;;1.50;;
209;SDS011;90;48.810;9.120;2023-03-14T06:48:40;2.77;;;1.57;;
209;SDS011;90;48.810;9.120;2023-03-14T06:51:07;4.07;;;1.97;;
209;SDS011;90;48.810;9.120;2023-03-14T06:53:35;1.90;;;1.50;;
209;SDS011;90;48.810;9.120;2023-03-14T06:56:05;2.80;;;1.50;;
209;SDS011;90;48.810;9.120;2023-03-14T06:58:33;2.63;;;1.30;;
209;SDS011;90;48.810;9.120;2023-03-14T07:01:01;2.00;;;1.43;;
209;SDS011;90;48.810;9.120;2023-03-14T07:03:28;2.20;;;1.50;;
209;SDS011;90;48.810;9.120;2023-03-14T07:05:55;2.07;;;1.73;;
209;SDS011;90;48.810;9.120;2023-03-14T07:08:22;2.10;;;1.40;;
209;SDS011;90;48.810;9.120;2023-03-14T07:10:48;1.90;;;1.50;;
209;SDS011;90;48.810;9.120;2023-03-14T07:13:15;1.90;;;1.50;;
209;SDS011;90;48.810;9.120;2023-03-14T07:15:45;2.47;;;1.30;;
209;SDS011;90;48.810;9.120;2023-03-14T07:18:13;2.70;;;1.30;;
209;SDS011;90;48.810;9.120;2023-03-14T07:20:40;2.67;;;1.43;;
209;SDS011;90;48.810;9.120;2023-03-14T07:23:07;2.00;;;1.30;;
209;SDS011;90;48.810;9.120;2023-03-14T07:25:37;1.90;;;1.40;;
209;SDS011;90;48.810;9.120;2023-03-14T07:28:04;2.00;;;1.30;;
209;SDS011;90;48.810;9.120;2023-03-14T07:30:31;4.53;;;1.40;;
209;SDS011;90;48.810;9.120;2023-03-14T07:32:57;1.83;;;1.30;;
209;SDS011;90;48.810;9.120;2023-03-14T07:35:26;1.80;;;1.30;;
209;SDS011;90;48.810;9.120;2023-03-14T07:37:53;3.93;;;1.20;;
209;SDS011;90;48.810;9.120;2023-03-14T07:40:23;2.65;;;1.30;;
209;SDS011;90;48.810;9.120;2023-03-14T07:43:07;4.20;;;1.40;;
209;SDS011;90;48.810;9.120;2023-03-14T07:45:34;1.80;;;1.20;;
209;SDS011;90;48.810;9.120;2023-03-14T07:48:01;2.50;;;1.50;;
209;SDS011;90;48.810;9.120;2023-03-14T07:50:29;2.93;;;1.13;;
209;SDS011;90;48.810;9.120;2023-03-14T07:52:56;1.80;;;1.17;;
209;SDS011;90;48.810;9.120;2023-03-14T07:55:23;5.40;;;1.70;;
209;SDS011;90;48.810;9.120;2023-03-14T07:57:49;1.80;;;1.20;;
209;SDS011;90;48.810;9.120;2023-03-14T08:00:16;2.67;;;1.40;;
209;SDS011;90;48.810;9.120;2023-03-14T08:02:44;2.27;;;1.13;;
209;SDS011;90;48.810;9.120;2023-03-14T08:05:11;1.90;;;1.20;;
209;SDS011;90;48.810;9.120;2023-03-14T08:07:39;2.33;;;1.30;;
209;SDS011;90;48.810;9.120;2023-03-14T08:10:06;1.80;;;1.17;;
209;SDS011;90;48.810;9.120;2023-03-14T08:12:34;1.80;;;1.20;;
209;SDS011;90;48.810;9.120;2023-03-14T08:15:01;1.90;;;1.13;;
209;SDS011;90;48.810;9.120;2023-03-14T08:17:28;2.27;;;1.33;;
209;SDS011;90;48.810;9.120;2023-03-14T08:19:54;2.37;;;1.20;;
209;SDS011;90;48.810;9.120;2023-03-14T08:22:21;1.90;;;1.27;;
209;SDS011;90;48.810;9.120;2023-03-14T08:24:52;1.80;;;1.20;;
209;SDS011;90;48.810;9.120;2023-03-14T08:27:19;2.50;;;1.20;;
209;SDS011;90;48.810;9.120;2023-03-14T08:29:45;2.10;;;1.17;;
209;SDS011;90;48.810;9.120;2023-03-14T08:32:12;3.30;;;1.13;;
209;SDS011;90;48.810;9.120;2023-03-14T08:34:39;3.80;;;1.10;;
209;SDS011;90;48.810;9.120;2023-03-14T08:37:06;1.70;;;1.00;;
209;SDS011;90;48.810;9.120;2023-03-14T08:39:33;3.50;;;1.20;;
209;SDS011;90;48.810;9.120;2023-03-14T08:42:01;2.13;;;1.00;;
209;SDS011;90;48.810;9.120;2023-03-14T08:44:28;2.53;;;1.00;;
209;SDS011;90;48.810;9.120;2023-03-14T08:46:55;2.57;;;1.20;;
209;SDS011;90;48.810;9.120;2023-03-14T08:49:21;2.27;;;1.10;;
209;SDS011;90;48.810;9.120;2023-03-14T08:51:48;3.10;;;1.17;;
209;SDS011;90;48.810;9.120;2023-03-14T08:54:15;2.10;;;1.10;;
209;SDS011;90;48.810;9.120;2023-03-14T08:56:42;2.33;;;1.20;;
209;SDS011;90;48.810;9.120;2023-03-14T08:59:10;1.90;;;1.10;;
209;SDS011;90;48.810;9.120;2023-03-14T09:01:37;1.80;;;1.10;;
209;SDS011;90;48.810;9.120;2023-03-14T09:04:04;2.00;;;1.20;;
209;SDS011;90;48.810;9.120;2023-03-14T09:06:31;2.40;;;1.20;;
209;SDS011;90;48.810;9.120;2023-03-14T09:08:58;1.80;;;1.10;;
209;SDS011;90;48.810;9.120;2023-03-14T09:11:25;2.80;;;1.23;;
209;SDS011;90;48.810;9.120;2023-03-14T09:13:52;2.00;;;1.00;;
209;SDS011;90;48.810;9.120;2023-03-14T09:16:20;2.00;;;1.13;;
209;SDS011;90;48.810;9.120;2023-03-14T09:18:48;1.70;;;1.10;;
209;SDS011;90;48.810;9.120;2023-03-14T09:21:14;2.00;;;1.10;;
209;SDS011;90;48.810;9.120;2023-03-14T09:23:41;2.00;;;1.13;;
209;SDS011;90;48.810;9.120;2023-03-14T09:26:10;2.10;;;1.47;;
209;SDS011;90;48.810;9.120;2023-03-14T09:28:37;4.83;;;1.53;;
209;SDS011;90;48.810;9.120;2023-03-14T09:31:07;1.90;;;1.30;;
209;SDS011;90;48.810;9.120;2023-03-14T09:33:36;2.17;;;1.10;;
209;SDS011;90;48.810;9.120;2023-03-14T09:36:04;2.50;;;1.20;;
209;SDS011;90;48.810;9.120;2023-03-14T09:38:32;4.53;;;1.43;;
209;SDS011;90;48.810;9.120;2023-03-14T09:40:59;4.90;;;1.37;;
209;SDS011;90;48.810;9.120;2023-03-14T09:43:29;1.80;;;1.00;;
209;SDS011;90;48.810;9.120;2023-03-14T09:45:57;1.77;;;1.10;;
209;SDS011;90;48.810;9.120;2023-03-14T09:48:27;2.07;;;1.10;;
209;SDS011;90;48.810;9.120;2023-03-14T09:50:58;2.97;;;1.10;;
209;SDS011;90;48.810;9.120;2023-03-14T09:53:29;1.90;;;1.20;;
209;SDS011;90;48.810;9.120;2023-03-14T09:56:04;1.70;;;1.07;;
209;SDS011;90;48.810;9.120;2023-03-14T09:58:37;1.67;;;0.90;;
209;SDS011;90;48.810;9.120;2023-03-14T10:01:07;1.70;;;0.90;;
209;SDS011;90;48.810;9.120;2023-03-14T10:03:39;1.80;;;0.90;;
209;SDS011;90;48.810;9.120;2023-03-14T10:06:12;2.00;;;1.10;;
209;SDS011;90;48.810;9.120;2023-03-14T10:08:40;2.17;;;1.10;;
209;SDS011;90;48.810;9.120;2023-03-14T10:11:09;1.70;;;1.10;;
209;SDS011;90;48.810;9.120;2023-03-14T10:13:46;1.90;;;0.97;;
209;SDS011;90;48.810;9.120;2023-03-14T10:18:54;3.33;;;1.10;;
209;SDS011;90;48.810;9.120;2023-03-14T10:21:31;1.67;;;0.97;;
209;SDS011;90;48.810;9.120;2023-03-14T10:24:10;1.80;;;1.10;;
209;SDS011;90;48.810;9.120;2023-03-14T10:26:45;1.70;;;1.10;;
209;SDS011;90;48.810;9.120;2023-03-14T10:29:14;1.80;;;1.10;;
209;SDS011;90;48.810;9.120;2023-03-14T10:31:51;2.13;;;1.00;;
209;SDS011;90;48.810;9.120;2023-03-14T10:34:22;4.00;;;1.03;;
209;SDS011;90;48.810;9.120;2023-03-14T10:36:56;1.80;;;1.00;;
209;SDS011;90;48.810;9.120;2023-03-14T10:39:26;2.10;;;1.30;;
209;SDS011;90;48.810;9.120;2023-03-14T10:41:55;1.80;;;1.03;;
209;SDS011;90;48.810;9.120;2023-03-14T10:44:30;2.00;;;1.17;;
209;SDS011;90;48.810;9.120;2023-03-14T10:46:58;2.20;;;1.07;;
209;SDS011;90;48.810;9.120;2023-03-14T10:49:28;2.60;;;1.10;;
209;SDS011;90;48.810;9.120;2023-03-14T10:51:57;1.90;;;1.17;;
209;SDS011;90;48.810;9.120;2023-03-14T10:54:29;4.03;;;1.10;;
209;SDS011;90;48.810;9.120;2023-03-14T10:56:57;1.70;;;1.07;;
209;SDS011;90;48.810;9.120;2023-03-14T10:59:25;1.87;;;1.07;;
209;SDS011;90;48.810;9.120;2023-03-14T11:01:57;11.13;;;1.50;;
209;SDS011;90;48.810;9.120;2023-03-14T11:04:39;3.30;;;1.10;;
209;SDS011;90;48.810;9.120;2023-03-14T11:07:23;2.53;;;1.00;;
209;SDS011;90;48.810;9.120;2023-03-14T11:09:56;1.77;;;1.00;;
209;SDS011;90;48.810;9.120;2023-03-14T11:12:32;1.70;;;1.23;;
209;SDS011;90;48.810;9.120;2023-03-14T11:15:09;1.70;;;1.10;;
209;SDS011;90;48.810;9.120;2023-03-14T11:17:44;2.87;;;1.00;;
209;SDS011;90;48.810;9.120;2023-03-14T11:20:31;3.65;;;1.50;;
209;SDS011;90;48.810;9.120;2023-03-14T11:23:11;4.10;;;1.13;;
209;SDS011;90;48.810;9.120;2023-03-14T11:25:42;2.27;;;1.20;;
209;SDS011;90;48.810;9.120;2023-03-14T11:28:17;1.83;;;1.00;;
209;SDS011;90;48.810;9.120;2023-03-14T11:30:50;1.70;;;1.10;;
209;SDS011;90;48.810;9.120;2023-03-14T11:33:20;1.70;;;1.00;;
209;SDS011;90;48.810;9.120;2023-03-14T11:35:52;1.70;;;1.10;;
209;SDS011;90;48.810;9.120;2023-03-14T11:38:29;1.70;;;1.10;;
209;SDS011;90;48.810;9.120;2023-03-14T11:40:58;1.70;;;1.07;;
209;SDS011;90;48.810;9.120;2023-03-14T11:43:28;3.07;;;1.00;;
209;SDS011;90;48.810;9.120;2023-03-14T11:45:58;1.67;;;0.90;;
209;SDS011;90;48.810;9.120;2023-03-14T11:48:35;1.70;;;1.10;;
209;SDS011;90;48.810;9.120;2023-03-14T11:51:07;2.30;;;1.10;;
209;SDS011;90;48.810;9.120;2023-03-14T11:53:43;1.70;;;1.00;;
209;SDS011;90;48.810;9.120;2023-03-14T11:56:17;1.70;;;1.00;;
209;SDS011;90;48.810;9.120;2023-03-14T11:58:51;1.80;;;1.00;;
209;SDS011;90;48.810;9.120;2023-03-14T12:01:22;1.90;;;1.10;;
209;SDS011;90;48.810;9.120;2023-03-14T12:03:58;2.00;;;1.30;;
209;SDS011;90;48.810;9.120;2023-03-14T12:06:33;1.70;;;1.10;;
209;SDS011;90;48.810;9.120;2023-03-14T12:09:08;2.40;;;1.37;;
209;SDS011;90;48.810;9.120;2023-03-14T12:11:38;1.67;;;0.90;;
209;SDS011;90;48.810;9.120;2023-03-14T12:14:20;1.60;;;0.90;;
209;SDS011;90;48.810;9.120;2023-03-14T12:16:52;1.70;;;1.20;;
209;SDS011;90;48.810;9.120;2023-03-14T12:19:26;1.70;;;1.30;;
209;SDS011;90;48.810;9.120;2023-03-14T12:21:57;1.90;;;1.10;;
209;SDS011;90;48.810;9.120;2023-03-14T12:24:28;3.63;;;1.10;;
209;SDS011;90;48.810;9.120;2023-03-14T12:27:01;1.80;;;1.20;;
209;SDS011;90;48.810;9.120;2023-03-14T12:29:30;3.70;;;1.30;;
209;SDS011;90;48.810;9.120;2023-03-14T12:32:06;1.80;;;1.13;;
209;SDS011;90;48.810;9.120;2023-03-14T12:34:36;3.70;;;1.63;;
209;SDS011;90;48.810;9.120;2023-03-14T12:37:10;1.70;;;1.30;;
209;SDS011;90;48.810;9.120;2023-03-14T12:39:49;2.67;;;1.50;;
209;SDS011;90;48.810;9.120;2023-03-14T12:42:24;1.90;;;1.70;;
209;SDS011;90;48.810;9.120;2023-03-14T12:45:21;3.40;;;2.43;;
209;SDS011;90;48.810;9.120;2023-03-14T12:47:53;2.97;;;1.80;;
209;SDS011;90;48.810;9.120;2023-03-14T12:50:32;3.50;;;1.50;;
209;SDS011;90;48.810;9.120;2023-03-14T12:53:09;1.90;;;1.90;;
209;SDS011;90;48.810;9.120;2023-03-14T12:55:54;2.60;;;1.57;;
209;SDS011;90;48.810;9.120;2023-03-14T12:58:28;1.77;;;1.33;;
209;SDS011;90;48.810;9.120;2023-03-14T13:01:01;3.10;;;1.50;;
209;SDS011;90;48.810;9.120;2023-03-14T13:03:36;2.03;;;1.53;;
209;SDS011;90;48.810;9.120;2023-03-14T13:06:10;2.37;;;1.50;;
209;SDS011;90;48.810;9.120;2023-03-14T13:08:38;1.90;;;1.50;;
209;SDS011;90;48.810;9.120;2023-03-14T13:11:09;4.17;;;1.70;;
209;SDS011;90;48.810;9.120;2023-03-14T13:13:41;12.40;;;3.17;;
209;SDS011;90;48.810;9.120;2023-03-14T13:16:12;2.40;;;1.53;;
209;SDS011;90;48.810;9.120;2023-03-14T13:18:42;2.50;;;1.60;;
209;SDS011;90;48.810;9.120;2023-03-14T13:21:11;2.87;;;1.57;;
209;SDS011;90;48.810;9.120;2023-03-14T13:23:42;2.87;;;1.50;;
209;SDS011;90;48.810;9.120;2023-03-14T13:26:22;1.93;;;1.60;;
209;SDS011;90;48.810;9.120;2023-03-14T13:28:51;4.33;;;1.73;;
209;SDS011;90;48.810;9.120;2023-03-14T13:31:19;4.87;;;1.60;;
209;SDS011;90;48.810;9.120;2023-03-14T13:33:56;2.47;;;1.80;;
209;SDS011;90;48.810;9.120;2023-03-14T13:36:24;2.77;;;1.80;;
209;SDS011;90;48.810;9.120;2023-03-14T13:38:55;2.43;;;1.60;;
209;SDS011;90;48.810;9.120;2023-03-14T13:41:25;5.10;;;1.73;;
209;SDS011;90;48.810;9.120;2023-03-14T13:43:58;2.53;;;1.53;;
209;SDS011;90;48.810;9.120;2023-03-14T13:46:28;2.63;;;1.80;;
209;SDS011;90;48.810;9.120;2023-03-14T13:48:57;14.33;;;1.77;;
209;SDS011;90;48.810;9.120;2023-03-14T13:51:26;3.60;;;1.87;;
209;SDS011;90;48.810;9.120;2023-03-14T13:53:56;4.73;;;1.50;;
209;SDS011;90;48.810;9.120;2023-03-14T13:56:26;3.00;;;1.60;;
209;SDS011;90;48.810;9.120;2023-03-14T13:58:54;2.90;;;1.60;;
209;SDS011;90;48.810;9.120;2023-03-14T14:01:22;1.90;;;1.30;;
209;SDS011;90;48.810;9.120;2023-03-14T14:03:51;2.63;;;1.50;;
209;SDS011;90;48.810;9.120;2023-03-14T14:06:27;4.23;;;1.70;;
209;SDS011;90;48.810;9.120;2023-03-14T14:08:56;5.37;;;1.70;;
209;SDS011;90;48.810;9.120;2023-03-14T14:11:31;1.83;;;1.30;;
209;SDS011;90;48.810;9.120;2023-03-14T14:14:04;2.90;;;1.33;;
209;SDS011;90;48.810;9.120;2023-03-14T14:16:34;2.57;;;1.60;;
209;SDS011;90;48.810;9.120;2023-03-14T14:19:01;4.90;;;1.60;;
209;SDS011;90;48.810;9.120;2023-03-14T14:21:29;2.20;;;1.70;;
209;SDS011;90;48.810;9.120;2023-03-14T14:23:56;4.40;;;1.93;;
209;SDS011;90;48.810;9.120;2023-03-14T14:26:25;3.40;;;1.70;;
209;SDS011;90;48.810;9.120;2023-03-14T14:29:01;2.73;;;1.80;;
209;SDS011;90;48.810;9.120;2023-03-14T14:31:29;3.03;;;1.80;;
209;SDS011;90;48.810;9.120;2023-03-14T14:33:56;2.67;;;1.50;;
209;SDS011;90;48.810;9.120;2023-03-14T14:36:25;3.07;;;1.87;;
209;SDS011;90;48.810;9.120;2023-03-14T14:38:56;9.27;;;1.70;;
209;SDS011;90;48.810;9.120;2023-03-14T14:41:29;6.30;;;1.93;;
209;SDS011;90;48.810;9.120;2023-03-14T14:43:57;2.50;;;1.90;;
209;SDS011;90;48.810;9.120;2023-03-14T14:46:27;2.13;;;1.50;;
209;SDS011;90;48.810;9.120;2023-03-14T14:48:56;2.77;;;1.63;;
209;SDS011;90;48.810;9.120;2023-03-14T14:51:31;3.17;;;1.73;;
209;SDS011;90;48.810;9.120;2023-03-14T14:54:04;7.70;;;1.70;;
209;SDS011;90;48.810;9.120;2023-03-14T14:56:37;3.90;;;1.90;;
209;SDS011;90;48.810;9.120;2023-03-14T14:59:04;2.83;;;1.63;;
209;SDS011;90;48.810;9.120;2023-03-14T15:01:34;2.40;;;1.87;;
209;SDS011;90;48.810;9.120;2023-03-14T15:04:04;2.30;;;2.10;;
209;SDS011;90;48.810;9.120;2023-03-14T15:06:38;2.40;;;1.90;;
209;SDS011;90;48.810;9.120;2023-03-14T15:09:05;2.00;;;1.60;;
209;SDS011;90;48.810;9.120;2023-03-14T15:11:34;3.53;;;2.00;;
209;SDS011;90;48.810;9.120;2023-03-14T15:14:01;5.60;;;2.47;;
209;SDS011;90;48.810;9.120;2023-03-14T15:16:29;4.43;;;1.70;;
209;SDS011;90;48.810;9.120;2023-03-14T15:18:58;3.23;;;2.20;;
209;SDS011;90;48.810;9.120;2023-03-14T15:21:27;2.70;;;1.70;;
209;SDS011;90;48.810;9.120;2023-03-14T15:23:57;4.90;;;2.13;;
209;SDS011;90;48.810;9.120;2023-03-14T15:26:25;2.30;;;1.50;;
209;SDS011;90;48.810;9.120;2023-03-14T15:29:08;5.37;;;1.93;;
209;SDS011;90;48.810;9.120;2023-03-14T15:31:37;4.57;;;2.23;;
209;SDS011;90;48.810;9.120;2023-03-14T15:34:05;6.30;;;2.07;;
209;SDS011;90;48.810;9.120;2023-03-14T15:36:33;2.20;;;1.63;;
209;SDS011;90;48.810;9.120;2023-03-14T15:39:01;1.97;;;1.60;;
209;SDS011;90;48.810;9.120;2023-03-14T15:41:29;4.67;;;1.70;;
209;SDS011;90;48.810;9.120;2023-03-14T15:43:56;3.73;;;1.90;;
209;SDS011;90;48.810;9.120;2023-03-14T15:46:22;2.10;;;1.83;;
209;SDS011;90;48.810;9.120;2023-03-14T15:48:50;7.10;;;2.13;;
209;SDS011;90;48.810;9.120;2023-03-14T15:51:19;3.83;;;2.07;;
209;SDS011;90;48.810;9.120;2023-03-14T15:53:45;2.33;;;1.77;;
209;SDS011;90;48.810;9.120;2023-03-14T15:56:13;3.70;;;2.00;;
209;SDS011;90;48.810;9.120;2023-03-14T15:58:41;3.10;;;1.43;;
209;SDS011;90;48.810;9.120;2023-03-14T16:01:11;4.80;;;1.60;;
209;SDS011;90;48.810;9.120;2023-03-14T16:03:38;3.63;;;1.77;;
209;SDS011;90;48.810;9.120;2023-03-14T16:06:05;2.10;;;1.60;;
209;SDS011;90;48.810;9.120;2023-03-14T16:08:33;3.63;;;1.90;;
209;SDS011;90;48.810;9.120;2023-03-14T16:11:00;5.40;;;2.00;;
209;SDS011;90;48.810;9.120;2023-03-14T16:13:27;3.70;;;1.80;;
209;SDS011;90;48.810;9.120;2023-03-14T16:15:54;4.43;;;1.53;;
209;SDS011;90;48.810;9.120;2023-03-14T16:18:22;2.50;;;1.80;;
209;SDS011;90;48.810;9.120;2023-03-14T16:20:53;2.97;;;1.60;;